Time,TemperatureF,DewpointF,PressureIn,WindDirection,WindDirectionDegrees,WindSpeedMPH,WindSpeedGustMPH,Humidity,HourlyPrecipIn,Conditions,Clouds,dailyrainin,SoftwareType,DateUTC
2013-03-27 00:00:00,31.3,25.2,29.05,West,270,2.3,0.0,78,0.00,CLR,,0.00,WeatherDisplay:10.37,2013-03-27 04:00:00,
2013-03-27 00:05:00,31.3,25.2,29.05,West,270,1.1,0.0,78,0.00,CLR,,0.00,WeatherDisplay:10.37,2013-03-27 04:05:00,
2013-03-27 00:10:00,31.6,25.6,29.05,NW,315,2.3,2.3,78,0.00,CLR,,0.00,WeatherDisplay:10.37,2013-03-27 04:10:00,
2013-03-27 00:15:00,32.5,25.8,29.05,NW,315,4.6,4.6,76,0.00,CLR,,0.00,WeatherDisplay:10.37,2013-03-27 04:15:00,
2013-03-27 00:20:00,33.1,25.7,29.06,NW,315,5.8,5.8,74,0.00,CLR,,0.00,WeatherDisplay:10.37,2013-03-27 04:20:00,
2013-03-27 00:25:00,33.4,26.0,29.05,NW,315,4.6,0.0,74,0.00,CLR,,0.00,WeatherDisplay:10.37,2013-03-27 04:25:00,
2013-03-27 00:30:00,33.3,25.5,29.06,West,270,1.1,0.0,73,0.00,CLR,,0.00,WeatherDisplay:10.37,2013-03-27 04:30:00,
2013-03-27 00:35:00,33.3,25.5,29.06,West,270,1.1,0.0,73,0.00,CLR,,0.00,WeatherDisplay:10.37,2013-03-27 04:35:00,
2013-03-27 00:40:00,32.7,25.3,29.06,NW,315,1.1,0.0,74,0.00,CLR,,0.00,WeatherDisplay:10.37,2013-03-27 04:40:00,
2013-03-27 00:45:00,32.2,24.8,29.06,NW,315,1.1,0.0,74,0.00,CLR,,0.00,WeatherDisplay:10.37,2013-03-27 04:45:00,
2013-03-27 00:50:00,31.5,24.8,29.06,SW,225,0.0,0.0,76,0.00,CLR,,0.00,WeatherDisplay:10.37,2013-03-27 04:50:00,
2013-03-27 00:55:00,30.9,24.2,29.05,SW,225,0.0,0.0,76,0.00,CLR,,0.00,WeatherDisplay:10.37,2013-03-27 04:55:00,
2013-03-27 01:00:00,30.4,24.3,29.05,SW,225,0.0,0.0,78,0.00,CLR,,0.00,WeatherDisplay:10.37,2013-03-27 05:00:00,
2013-03-27 01:05:00,30.0,24.3,29.05,SW,225,0.0,0.0,79,0.00,CLR,,0.00,WeatherDisplay:10.37,2013-03-27 05:05:00,
2013-03-27 01:10:00,30.2,24.8,29.05,SW,225,1.1,0.0,80,0.00,CLR,,0.00,WeatherDisplay:10.37,2013-03-27 05:10:00,
2013-03-27 01:15:00,30.2,24.8,29.05,SW,225,0.0,0.0,80,0.00,CLR,,0.00,WeatherDisplay:10.37,2013-03-27 05:15:00,
2013-03-27 01:20:00,30.2,25.1,29.05,SW,225,0.0,0.0,81,0.00,CLR,,0.00,WeatherDisplay:10.37,2013-03-27 05:20:00,
2013-03-27 01:25:00,30.2,25.1,29.05,SW,225,0.0,0.0,81,0.00,CLR,,0.00,WeatherDisplay:10.37,2013-03-27 05:25:00,
2013-03-27 01:30:00,29.8,24.7,29.05,SW,225,0.0,0.0,81,0.00,CLR,,0.00,WeatherDisplay:10.37,2013-03-27 05:30:00,
2013-03-27 01:35:00,29.8,24.7,29.05,SW,225,0.0,0.0,81,0.00,CLR,,0.00,WeatherDisplay:10.37,2013-03-27 05:35:00,
2013-03-27 01:40:00,28.8,24.0,29.05,SW,225,0.0,0.0,82,0.00,CLR,,0.00,WeatherDisplay:10.37,2013-03-27 05:40:00,
2013-03-27 01:45:00,28.4,23.6,29.06,SW,225,0.0,0.0,82,0.00,CLR,,0.00,WeatherDisplay:10.37,2013-03-27 05:45:00,
2013-03-27 01:50:00,28.0,23.5,29.05,SW,225,0.0,0.0,83,0.00,CLR,,0.00,WeatherDisplay:10.37,2013-03-27 05:50:00,
2013-03-27 01:56:00,27.7,23.5,29.05,SW,225,0.0,0.0,84,0.00,CLR,,0.00,WeatherDisplay:10.37,2013-03-27 05:56:00,
2013-03-27 02:01:00,27.5,23.3,29.05,SW,225,0.0,0.0,84,0.00,CLR,,0.00,WeatherDisplay:10.37,2013-03-27 06:01:00,
2013-03-27 02:06:00,27.5,23.3,29.06,SW,225,0.0,0.0,84,0.00,CLR,,0.00,WeatherDisplay:10.37,2013-03-27 06:06:00,
2013-03-27 02:11:00,27.0,23.3,29.06,SW,225,0.0,0.0,86,0.00,CLR,,0.00,WeatherDisplay:10.37,2013-03-27 06:11:00,
2013-03-27 02:16:00,26.6,23.3,29.06,SW,225,0.0,0.0,87,0.00,CLR,,0.00,WeatherDisplay:10.37,2013-03-27 06:16:00,
2013-03-27 02:21:00,26.6,23.3,29.05,SW,225,0.0,0.0,87,0.00,CLR,,0.00,WeatherDisplay:10.37,2013-03-27 06:21:00,
2013-03-27 02:26:00,26.4,23.3,29.06,SW,225,0.0,0.0,88,0.00,CLR,,0.00,WeatherDisplay:10.37,2013-03-27 06:26:00,
2013-03-27 02:31:00,26.4,23.6,29.05,SW,225,0.0,0.0,89,0.00,CLR,,0.00,WeatherDisplay:10.37,2013-03-27 06:31:00,
2013-03-27 02:37:00,26.2,23.4,29.05,SW,225,0.0,0.0,89,0.00,CLR,,0.00,WeatherDisplay:10.37,2013-03-27 06:37:00,
2013-03-27 02:42:00,26.1,23.3,29.06,SW,225,0.0,0.0,89,0.00,CLR,,0.00,WeatherDisplay:10.37,2013-03-27 06:42:00,
2013-03-27 02:47:00,26.1,23.3,29.05,SW,225,0.0,0.0,89,0.00,CLR,,0.00,WeatherDisplay:10.37,2013-03-27 06:47:00,
2013-03-27 02:52:00,25.9,23.4,29.05,SW,225,0.0,0.0,90,0.00,CLR,,0.00,WeatherDisplay:10.37,2013-03-27 06:52:00,
2013-03-27 02:57:00,25.7,23.4,29.05,SW,225,0.0,0.0,91,0.00,CLR,,0.00,WeatherDisplay:10.37,2013-03-27 06:57:00,
2013-03-27 03:02:00,25.5,23.5,29.05,SW,225,0.0,0.0,92,0.00,CLR,,0.00,WeatherDisplay:10.37,2013-03-27 07:02:00,
2013-03-27 03:07:00,25.7,24.0,29.05,SW,225,0.0,0.0,93,0.00,CLR,,0.00,WeatherDisplay:10.37,2013-03-27 07:07:00,
2013-03-27 03:12:00,25.7,24.0,29.05,SW,225,0.0,0.0,93,0.00,CLR,,0.00,WeatherDisplay:10.37,2013-03-27 07:12:00,
2013-03-27 03:17:00,25.5,23.8,29.05,SW,225,0.0,0.0,93,0.00,CLR,,0.00,WeatherDisplay:10.37,2013-03-27 07:17:00,
2013-03-27 03:22:00,25.5,23.8,29.05,SW,225,0.0,0.0,93,0.00,CLR,,0.00,WeatherDisplay:10.37,2013-03-27 07:22:00,
2013-03-27 03:27:00,25.2,23.2,29.05,SW,225,0.0,0.0,92,0.00,CLR,,0.00,WeatherDisplay:10.37,2013-03-27 07:27:00,
2013-03-27 03:32:00,24.8,23.1,29.05,SW,225,0.0,0.0,93,0.00,CLR,,0.00,WeatherDisplay:10.37,2013-03-27 07:32:00,
2013-03-27 03:37:00,24.6,22.9,29.05,SW,225,0.0,0.0,93,0.00,CLR,,0.00,WeatherDisplay:10.37,2013-03-27 07:37:00,
2013-03-27 03:42:00,24.8,23.3,29.04,SW,225,0.0,0.0,94,0.00,CLR,,0.00,WeatherDisplay:10.37,2013-03-27 07:42:00,
2013-03-27 03:47:00,24.6,23.1,29.04,SW,225,0.0,0.0,94,0.00,CLR,,0.00,WeatherDisplay:10.37,2013-03-27 07:47:00,
2013-03-27 03:52:00,24.4,23.0,29.04,SW,225,0.0,0.0,94,0.00,CLR,,0.00,WeatherDisplay:10.37,2013-03-27 07:52:00,
2013-03-27 03:57:00,24.4,23.0,29.05,SW,225,0.0,0.0,94,0.00,CLR,,0.00,WeatherDisplay:10.37,2013-03-27 07:57:00,
2013-03-27 04:02:00,24.4,23.2,29.05,SW,225,0.0,0.0,95,0.00,CLR,,0.00,WeatherDisplay:10.37,2013-03-27 08:02:00,
2013-03-27 04:07:00,24.4,23.2,29.05,SW,225,0.0,0.0,95,0.00,CLR,,0.00,WeatherDisplay:10.37,2013-03-27 08:07:00,
2013-03-27 04:13:00,23.9,22.9,29.04,SW,225,0.0,0.0,96,0.00,CLR,,0.00,WeatherDisplay:10.37,2013-03-27 08:13:00,
2013-03-27 04:18:00,23.9,22.9,29.05,SW,225,0.0,0.0,96,0.00,CLR,,0.00,WeatherDisplay:10.37,2013-03-27 08:18:00,
2013-03-27 04:23:00,24.1,23.4,29.04,SW,225,0.0,0.0,97,0.00,CLR,,0.00,WeatherDisplay:10.37,2013-03-27 08:23:00,
2013-03-27 04:28:00,23.9,23.2,29.04,SW,225,0.0,0.0,97,0.00,CLR,,0.00,WeatherDisplay:10.37,2013-03-27 08:28:00,
2013-03-27 04:33:00,23.7,23.0,29.04,SW,225,0.0,0.0,97,0.00,CLR,,0.00,WeatherDisplay:10.37,2013-03-27 08:33:00,
2013-03-27 04:38:00,23.9,23.4,29.04,SW,225,0.0,0.0,98,0.00,CLR,,0.00,WeatherDisplay:10.37,2013-03-27 08:38:00,
2013-03-27 04:43:00,23.7,23.2,29.04,SW,225,0.0,0.0,98,0.00,CLR,,0.00,WeatherDisplay:10.37,2013-03-27 08:43:00,
2013-03-27 04:48:00,23.5,22.8,29.04,SW,225,0.0,0.0,97,0.00,CLR,,0.00,WeatherDisplay:10.37,2013-03-27 08:48:00,
2013-03-27 04:53:00,23.4,22.9,29.04,SW,225,0.0,0.0,98,0.00,CLR,,0.00,WeatherDisplay:10.37,2013-03-27 08:53:00,
2013-03-27 04:58:00,23.4,22.9,29.04,SW,225,0.0,0.0,98,0.00,CLR,,0.00,WeatherDisplay:10.37,2013-03-27 08:58:00,
2013-03-27 05:03:00,23.5,23.3,29.04,SW,225,0.0,0.0,99,0.00,,,0.00,WeatherDisplay:10.37,2013-03-27 09:03:00,
2013-03-27 05:08:00,23.7,23.5,29.04,SW,225,0.0,0.0,99,0.00,,,0.00,WeatherDisplay:10.37,2013-03-27 09:08:00,
2013-03-27 05:13:00,23.5,23.3,29.04,SW,225,0.0,0.0,99,0.00,,,0.00,WeatherDisplay:10.37,2013-03-27 09:13:00,
2013-03-27 05:18:00,23.4,23.1,29.05,SW,225,0.0,0.0,99,0.00,,,0.00,WeatherDisplay:10.37,2013-03-27 09:18:00,
2013-03-27 05:23:00,23.4,23.1,29.05,SW,225,0.0,0.0,99,0.00,,,0.00,WeatherDisplay:10.37,2013-03-27 09:23:00,
2013-03-27 05:28:00,23.2,22.9,29.05,SW,225,0.0,0.0,99,0.00,,,0.00,WeatherDisplay:10.37,2013-03-27 09:28:00,
2013-03-27 05:33:00,23.0,22.8,29.05,SW,225,0.0,0.0,99,0.00,,,0.00,WeatherDisplay:10.37,2013-03-27 09:33:00,
2013-03-27 05:38:00,23.0,22.8,29.06,SW,225,0.0,0.0,99,0.00,,,0.00,WeatherDisplay:10.37,2013-03-27 09:38:00,
2013-03-27 05:43:00,23.0,22.8,29.06,SW,225,0.0,0.0,99,0.00,,,0.00,WeatherDisplay:10.37,2013-03-27 09:43:00,
2013-03-27 05:48:00,22.8,22.6,29.05,SW,225,0.0,0.0,99,0.00,,,0.00,WeatherDisplay:10.37,2013-03-27 09:48:00,
2013-03-27 05:53:00,23.0,22.8,29.06,SW,225,0.0,0.0,99,0.00,,,0.00,WeatherDisplay:10.37,2013-03-27 09:53:00,
2013-03-27 05:58:00,23.0,22.8,29.06,SW,225,0.0,0.0,99,0.00,,,0.00,WeatherDisplay:10.37,2013-03-27 09:58:00,
2013-03-27 06:03:00,23.0,22.8,29.06,SW,225,0.0,0.0,99,0.00,,,0.00,WeatherDisplay:10.37,2013-03-27 10:03:00,
2013-03-27 06:08:00,23.2,22.9,29.06,SW,225,0.0,0.0,99,0.00,,,0.00,WeatherDisplay:10.37,2013-03-27 10:08:00,
2013-03-27 06:13:00,23.4,23.1,29.06,SW,225,0.0,0.0,99,0.00,,,0.00,WeatherDisplay:10.37,2013-03-27 10:13:00,
2013-03-27 06:18:00,23.4,23.1,29.06,SW,225,0.0,0.0,99,0.00,,,0.00,WeatherDisplay:10.37,2013-03-27 10:18:00,
2013-03-27 06:23:00,23.0,22.8,29.06,SW,225,0.0,0.0,99,0.00,,,0.00,WeatherDisplay:10.37,2013-03-27 10:23:00,
2013-03-27 06:28:00,23.0,22.8,29.07,SW,225,0.0,0.0,99,0.00,,,0.00,WeatherDisplay:10.37,2013-03-27 10:28:00,
2013-03-27 06:33:00,22.6,22.4,29.07,SW,225,0.0,0.0,99,0.00,,,0.00,WeatherDisplay:10.37,2013-03-27 10:33:00,
2013-03-27 06:38:00,22.6,22.4,29.07,SW,225,0.0,0.0,99,0.00,,,0.00,WeatherDisplay:10.37,2013-03-27 10:38:00,
2013-03-27 06:43:00,22.6,22.4,29.07,SW,225,0.0,0.0,99,0.00,,,0.00,WeatherDisplay:10.37,2013-03-27 10:43:00,
2013-03-27 06:48:00,22.5,22.2,29.07,SW,225,0.0,0.0,99,0.00,,,0.00,WeatherDisplay:10.37,2013-03-27 10:48:00,
2013-03-27 06:53:00,22.6,22.4,29.08,SW,225,0.0,0.0,99,0.00,,,0.00,WeatherDisplay:10.37,2013-03-27 10:53:00,
2013-03-27 06:58:00,22.6,22.4,29.08,SW,225,0.0,0.0,99,0.00,,,0.00,WeatherDisplay:10.37,2013-03-27 10:58:00,
2013-03-27 07:03:00,22.6,22.4,29.08,SW,225,0.0,0.0,99,0.00,,,0.00,WeatherDisplay:10.37,2013-03-27 11:03:00,
2013-03-27 07:08:00,22.5,22.2,29.08,SW,225,0.0,0.0,99,0.00,,,0.00,WeatherDisplay:10.37,2013-03-27 11:08:00,
2013-03-27 07:13:00,22.5,22.2,29.08,SW,225,0.0,0.0,99,0.00,,,0.00,WeatherDisplay:10.37,2013-03-27 11:13:00,
2013-03-27 07:18:00,22.6,22.4,29.09,SW,225,0.0,0.0,99,0.00,,,0.00,WeatherDisplay:10.37,2013-03-27 11:18:00,
2013-03-27 07:23:00,22.8,22.6,29.09,SW,225,0.0,0.0,99,0.00,,,0.00,WeatherDisplay:10.37,2013-03-27 11:23:00,
2013-03-27 07:28:00,23.0,22.8,29.09,SW,225,0.0,0.0,99,0.00,,,0.00,WeatherDisplay:10.37,2013-03-27 11:28:00,
2013-03-27 07:33:00,23.2,22.9,29.09,SW,225,0.0,0.0,99,0.00,,,0.00,WeatherDisplay:10.37,2013-03-27 11:33:00,
2013-03-27 07:38:00,23.2,22.9,29.09,SW,225,0.0,0.0,99,0.00,,,0.00,WeatherDisplay:10.37,2013-03-27 11:38:00,
2013-03-27 07:43:00,23.4,23.1,29.10,SW,225,0.0,0.0,99,0.00,,,0.00,WeatherDisplay:10.37,2013-03-27 11:43:00,
2013-03-27 07:48:00,23.7,23.5,29.10,SW,225,0.0,0.0,99,0.00,,,0.00,WeatherDisplay:10.37,2013-03-27 11:48:00,
2013-03-27 07:53:00,24.1,23.8,29.10,SW,225,0.0,0.0,99,0.00,,,0.00,WeatherDisplay:10.37,2013-03-27 11:53:00,
2013-03-27 07:58:00,24.4,24.2,29.10,SW,225,0.0,0.0,99,0.00,,,0.00,WeatherDisplay:10.37,2013-03-27 11:58:00,
2013-03-27 08:03:00,26.6,26.4,29.10,SW,225,0.0,0.0,99,0.00,,,0.00,WeatherDisplay:10.37,2013-03-27 12:03:00,
2013-03-27 08:08:00,29.7,29.4,29.10,SW,225,0.0,0.0,99,0.00,,,0.00,WeatherDisplay:10.37,2013-03-27 12:08:00,
2013-03-27 08:13:00,33.1,32.8,29.10,SW,225,0.0,0.0,99,0.00,,,0.00,WeatherDisplay:10.37,2013-03-27 12:13:00,
2013-03-27 08:18:00,36.3,35.3,29.10,SW,225,0.0,0.0,96,0.00,CLR,,0.00,WeatherDisplay:10.37,2013-03-27 12:18:00,
2013-03-27 08:23:00,39.0,36.6,29.10,SW,225,0.0,0.0,91,0.00,CLR,,0.00,WeatherDisplay:10.37,2013-03-27 12:23:00,
2013-03-27 08:28:00,40.8,36.1,29.11,SW,225,0.0,0.0,83,0.00,CLR,,0.00,WeatherDisplay:10.37,2013-03-27 12:28:00,
2013-03-27 08:33:00,40.8,34.8,29.11,SW,225,0.0,0.0,79,0.00,CLR,,0.00,WeatherDisplay:10.37,2013-03-27 12:33:00,
2013-03-27 08:38:00,40.6,32.7,29.10,SW,225,2.3,2.3,73,0.00,CLR,,0.00,WeatherDisplay:10.37,2013-03-27 12:38:00,
2013-03-27 08:43:00,40.5,30.4,29.11,SW,225,3.5,3.5,67,0.00,CLR,,0.00,WeatherDisplay:10.37,2013-03-27 12:43:00,
2013-03-27 08:48:00,41.0,30.9,29.10,NW,315,3.5,3.5,67,0.00,CLR,,0.00,WeatherDisplay:10.37,2013-03-27 12:48:00,
2013-03-27 08:53:00,41.0,29.4,29.11,NW,315,3.5,3.5,63,0.00,CLR,,0.00,WeatherDisplay:10.37,2013-03-27 12:53:00,
2013-03-27 08:58:00,41.2,29.1,29.11,NW,315,3.5,3.5,62,0.00,CLR,,0.00,WeatherDisplay:10.37,2013-03-27 12:58:00,
2013-03-27 09:03:00,42.4,30.7,29.11,NW,315,4.6,0.0,63,0.00,CLR,,0.00,WeatherDisplay:10.37,2013-03-27 13:03:00,
2013-03-27 09:08:00,42.8,29.5,29.11,NW,315,5.8,5.8,59,0.00,CLR,,0.00,WeatherDisplay:10.37,2013-03-27 13:08:00,
2013-03-27 09:13:00,43.0,28.8,29.11,West,270,6.9,6.9,57,0.00,CLR,,0.00,WeatherDisplay:10.37,2013-03-27 13:13:00,
2013-03-27 09:18:00,43.2,28.5,29.11,NW,315,6.9,6.9,56,0.00,CLR,,0.00,WeatherDisplay:10.37,2013-03-27 13:18:00,
2013-03-27 09:23:00,43.3,27.8,29.11,NW,315,5.8,5.8,54,0.00,CLR,,0.00,WeatherDisplay:10.37,2013-03-27 13:23:00,
2013-03-27 09:28:00,43.9,28.7,29.11,NW,315,5.8,5.8,55,0.00,CLR,,0.00,WeatherDisplay:10.37,2013-03-27 13:28:00,
2013-03-27 09:33:00,44.4,27.9,29.11,WNW,292,8.1,8.1,52,0.00,CLR,,0.00,WeatherDisplay:10.37,2013-03-27 13:33:00,
2013-03-27 09:38:00,44.4,28.8,29.11,NW,315,4.6,4.6,54,0.00,CLR,,0.00,WeatherDisplay:10.37,2013-03-27 13:38:00,
2013-03-27 09:43:00,44.4,28.3,29.12,NW,315,3.5,0.0,53,0.00,CLR,,0.00,WeatherDisplay:10.37,2013-03-27 13:43:00,
2013-03-27 09:48:00,45.3,28.2,29.12,NW,315,3.5,3.5,51,0.00,CLR,,0.00,WeatherDisplay:10.37,2013-03-27 13:48:00,
2013-03-27 09:53:00,45.3,27.8,29.11,NW,315,4.6,4.6,50,0.00,CLR,,0.00,WeatherDisplay:10.37,2013-03-27 13:53:00,
2013-03-27 09:58:00,45.7,27.6,29.11,NW,315,9.2,9.2,49,0.00,CLR,,0.00,WeatherDisplay:10.37,2013-03-27 13:58:00,
2013-03-27 10:03:00,45.7,28.1,29.11,West,270,5.8,5.8,50,0.00,CLR,,0.00,WeatherDisplay:10.37,2013-03-27 14:03:00,
2013-03-27 10:08:00,45.5,27.4,29.11,NW,315,10.4,10.4,49,0.00,CLR,,0.00,WeatherDisplay:10.37,2013-03-27 14:08:00,
2013-03-27 10:13:00,45.5,26.4,29.12,NW,315,6.9,6.9,47,0.00,CLR,,0.00,WeatherDisplay:10.37,2013-03-27 14:13:00,
2013-03-27 10:18:00,45.9,27.8,29.12,East,90,5.8,5.8,49,0.00,CLR,,0.00,WeatherDisplay:10.37,2013-03-27 14:18:00,
2013-03-27 10:23:00,46.6,28.9,29.12,NW,315,3.5,0.0,50,0.00,CLR,,0.00,WeatherDisplay:10.37,2013-03-27 14:23:00,
2013-03-27 10:28:00,48.2,31.4,29.12,NE,45,3.5,3.5,52,0.00,CLR,,0.00,WeatherDisplay:10.37,2013-03-27 14:28:00,
2013-03-27 10:33:00,48.6,28.7,29.12,NW,315,8.3,8.3,46,0.00,CLR,,0.00,WeatherDisplay:10.37,2013-03-27 14:33:00,
2013-03-27 10:38:00,47.3,28.1,29.12,NW,315,5.8,5.8,47,0.00,CLR,,0.00,WeatherDisplay:10.37,2013-03-27 14:38:00,
2013-03-27 10:43:00,46.8,28.6,29.12,North,0,8.1,8.1,49,0.00,CLR,,0.00,WeatherDisplay:10.37,2013-03-27 14:43:00,
2013-03-27 10:48:00,47.7,29.4,29.11,West,270,3.5,3.5,49,0.00,CLR,,0.00,WeatherDisplay:10.37,2013-03-27 14:48:00,
2013-03-27 10:53:00,48.2,29.9,29.12,West,270,6.9,6.9,49,0.00,CLR,,0.00,WeatherDisplay:10.37,2013-03-27 14:53:00,
2013-03-27 10:58:00,47.7,27.9,29.12,West,270,10.4,10.4,46,0.00,CLR,,0.00,WeatherDisplay:10.37,2013-03-27 14:58:00,
2013-03-27 11:03:00,47.3,27.5,29.12,SW,225,10.4,10.4,46,0.00,CLR,,0.00,WeatherDisplay:10.37,2013-03-27 15:03:00,
2013-03-27 11:08:00,47.5,27.2,29.12,NW,315,5.8,5.8,45,0.00,CLR,,0.00,WeatherDisplay:10.37,2013-03-27 15:08:00,
2013-03-27 11:13:00,47.5,27.7,29.12,NW,315,6.9,6.9,46,0.00,CLR,,0.00,WeatherDisplay:10.37,2013-03-27 15:13:00,
2013-03-27 11:18:00,48.6,29.7,29.12,West,270,5.8,5.8,48,0.00,CLR,,0.00,WeatherDisplay:10.37,2013-03-27 15:18:00,
2013-03-27 11:23:00,48.6,28.7,29.12,SW,225,3.5,3.5,46,0.00,CLR,,0.00,WeatherDisplay:10.37,2013-03-27 15:23:00,
2013-03-27 11:28:00,48.7,29.4,29.12,NW,315,5.8,5.8,47,0.00,CLR,,0.00,WeatherDisplay:10.37,2013-03-27 15:28:00,
2013-03-27 11:33:00,48.4,28.5,29.12,NW,315,5.8,5.8,46,0.00,CLR,,0.00,WeatherDisplay:10.37,2013-03-27 15:33:00,
2013-03-27 11:38:00,47.7,27.9,29.12,West,270,8.1,8.1,46,0.00,CLR,,0.00,WeatherDisplay:10.37,2013-03-27 15:38:00,
2013-03-27 11:43:00,48.4,29.1,29.12,NW,315,5.8,5.8,47,0.00,CLR,,0.00,WeatherDisplay:10.37,2013-03-27 15:43:00,
2013-03-27 11:48:00,49.8,29.8,29.12,NW,315,5.8,5.8,46,0.00,CLR,,0.00,WeatherDisplay:10.37,2013-03-27 15:48:00,
2013-03-27 11:53:00,49.8,28.2,29.12,NW,315,4.6,4.6,43,0.00,CLR,,0.00,WeatherDisplay:10.37,2013-03-27 15:53:00,
2013-03-27 11:58:00,51.3,30.1,29.12,SW,225,2.3,2.3,44,0.00,CLR,,0.00,WeatherDisplay:10.37,2013-03-27 15:58:00,
2013-03-27 12:03:00,51.1,28.8,29.12,SW,225,6.9,6.9,42,0.00,CLR,,0.00,WeatherDisplay:10.37,2013-03-27 16:03:00,
2013-03-27 12:08:00,50.7,29.6,29.12,SW,225,3.5,3.5,44,0.00,CLR,,0.00,WeatherDisplay:10.37,2013-03-27 16:08:00,
2013-03-27 12:13:00,50.5,29.4,29.12,NW,315,6.9,6.9,44,0.00,CLR,,0.00,WeatherDisplay:10.37,2013-03-27 16:13:00,
2013-03-27 12:18:00,50.7,29.6,29.12,NW,315,3.5,3.5,44,0.00,CLR,,0.00,WeatherDisplay:10.37,2013-03-27 16:18:00,
2013-03-27 12:23:00,50.7,28.4,29.11,North,0,8.1,8.1,42,0.00,CLR,,0.00,WeatherDisplay:10.37,2013-03-27 16:23:00,
2013-03-27 12:28:00,50.2,29.6,29.11,West,270,5.8,5.8,45,0.00,CLR,,0.00,WeatherDisplay:10.37,2013-03-27 16:28:00,
2013-03-27 12:33:00,50.5,30.0,29.11,West,270,4.6,4.6,45,0.00,CLR,,0.00,WeatherDisplay:10.37,2013-03-27 16:33:00,
2013-03-27 12:38:00,50.7,29.6,29.11,SW,225,8.1,8.1,44,0.00,CLR,,0.00,WeatherDisplay:10.37,2013-03-27 16:38:00,
2013-03-27 12:43:00,50.7,29.0,29.11,SW,225,6.9,6.9,43,0.00,CLR,,0.00,WeatherDisplay:10.37,2013-03-27 16:43:00,
2013-03-27 12:48:00,50.2,29.1,29.11,SW,225,6.9,6.9,44,0.00,CLR,,0.00,WeatherDisplay:10.37,2013-03-27 16:48:00,
2013-03-27 12:53:00,50.7,29.0,29.10,NW,315,5.8,5.8,43,0.00,CLR,,0.00,WeatherDisplay:10.37,2013-03-27 16:53:00,
2013-03-27 12:58:00,51.3,29.5,29.10,NW,315,4.6,4.6,43,0.00,CLR,,0.00,WeatherDisplay:10.37,2013-03-27 16:58:00,
2013-03-27 13:03:00,51.8,30.0,29.11,SW,225,4.6,4.6,43,0.00,CLR,,0.00,WeatherDisplay:10.37,2013-03-27 17:03:00,
2013-03-27 13:08:00,50.5,28.8,29.10,WNW,292,8.1,8.1,43,0.00,CLR,,0.00,WeatherDisplay:10.37,2013-03-27 17:08:00,
2013-03-27 13:13:00,50.9,29.2,29.10,South,180,5.8,5.8,43,0.00,CLR,,0.00,WeatherDisplay:10.37,2013-03-27 17:13:00,
2013-03-27 13:18:00,51.1,31.5,29.10,West,270,8.1,8.1,47,0.00,CLR,,0.00,WeatherDisplay:10.37,2013-03-27 17:18:00,
2013-03-27 13:23:00,51.1,29.3,29.10,NW,315,9.2,9.2,43,0.00,CLR,,0.00,WeatherDisplay:10.37,2013-03-27 17:23:00,
2013-03-27 13:28:00,51.3,30.1,29.10,SW,225,5.8,5.8,44,0.00,CLR,,0.00,WeatherDisplay:10.37,2013-03-27 17:28:00,
2013-03-27 13:33:00,52.2,30.9,29.10,SW,225,5.8,5.8,44,0.00,CLR,,0.00,WeatherDisplay:10.37,2013-03-27 17:33:00,
2013-03-27 13:38:00,51.8,30.6,29.10,NE,45,5.8,5.8,44,0.00,CLR,,0.00,WeatherDisplay:10.37,2013-03-27 17:38:00,
2013-03-27 13:43:00,51.4,30.2,29.10,NW,315,3.5,3.5,44,0.00,CLR,,0.00,WeatherDisplay:10.37,2013-03-27 17:43:00,
2013-03-27 13:48:00,51.8,28.8,29.10,West,270,5.8,5.8,41,0.00,CLR,,0.00,WeatherDisplay:10.37,2013-03-27 17:48:00,
2013-03-27 13:53:00,51.4,29.1,29.10,NW,315,5.8,5.8,42,0.00,CLR,,0.00,WeatherDisplay:10.37,2013-03-27 17:53:00,
2013-03-27 13:58:00,51.3,28.9,29.09,West,270,6.9,6.9,42,0.00,CLR,,0.00,WeatherDisplay:10.37,2013-03-27 17:58:00,
2013-03-27 14:03:00,52.3,31.0,29.09,SW,225,6.9,6.9,44,0.00,CLR,,0.00,WeatherDisplay:10.37,2013-03-27 18:03:00,
2013-03-27 14:08:00,52.5,29.5,29.09,SW,225,6.9,0.0,41,0.00,CLR,,0.00,WeatherDisplay:10.37,2013-03-27 18:08:00,
2013-03-27 14:13:00,52.3,28.7,29.09,NW,315,5.8,5.8,40,0.00,CLR,,0.00,WeatherDisplay:10.37,2013-03-27 18:13:00,
2013-03-27 14:18:00,52.7,28.4,29.09,NW,315,4.6,4.6,39,0.00,CLR,,0.00,WeatherDisplay:10.37,2013-03-27 18:18:00,
2013-03-27 14:23:00,52.9,31.0,29.09,NW,315,8.1,8.1,43,0.00,CLR,,0.00,WeatherDisplay:10.37,2013-03-27 18:23:00,
2013-03-27 14:28:00,53.1,28.7,29.09,West,270,6.9,6.9,39,0.00,CLR,,0.00,WeatherDisplay:10.37,2013-03-27 18:28:00,
2013-03-27 14:33:00,53.1,29.4,29.09,SW,225,5.8,5.8,40,0.00,CLR,,0.00,WeatherDisplay:10.37,2013-03-27 18:33:00,
2013-03-27 14:38:00,52.9,29.8,29.09,West,270,8.1,8.1,41,0.00,CLR,,0.00,WeatherDisplay:10.37,2013-03-27 18:38:00,
2013-03-27 14:43:00,53.6,28.6,29.09,WNW,292,5.8,5.8,38,0.00,CLR,,0.00,WeatherDisplay:10.37,2013-03-27 18:43:00,
2013-03-27 14:48:00,52.9,27.3,29.09,North,0,12.7,12.7,37,0.00,CLR,,0.00,WeatherDisplay:10.37,2013-03-27 18:48:00,
2013-03-27 14:53:00,53.1,30.0,29.08,SW,225,4.6,4.6,41,0.00,CLR,,0.00,WeatherDisplay:10.37,2013-03-27 18:53:00,
2013-03-27 14:58:00,53.4,29.7,29.07,NW,315,8.1,8.1,40,0.00,CLR,,0.00,WeatherDisplay:10.37,2013-03-27 18:58:00,
2013-03-27 15:03:00,54.7,30.8,29.07,North,0,5.8,5.8,40,0.00,CLR,,0.00,WeatherDisplay:10.37,2013-03-27 19:03:00,
2013-03-27 15:08:00,55.0,31.1,29.07,West,270,5.8,5.8,40,0.00,CLR,,0.00,WeatherDisplay:10.37,2013-03-27 19:08:00,
2013-03-27 15:13:00,55.8,30.5,29.07,NE,45,5.8,5.8,38,0.00,CLR,,0.00,WeatherDisplay:10.37,2013-03-27 19:13:00,
2013-03-27 15:18:00,54.7,30.2,29.07,NW,315,10.4,10.4,39,0.00,CLR,,0.00,WeatherDisplay:10.37,2013-03-27 19:18:00,
2013-03-27 15:23:00,54.1,28.4,29.07,NE,45,4.6,4.6,37,0.00,CLR,,0.00,WeatherDisplay:10.37,2013-03-27 19:23:00,
2013-03-27 15:28:00,55.0,28.5,29.07,NW,315,5.8,5.8,36,0.00,CLR,,0.00,WeatherDisplay:10.37,2013-03-27 19:28:00,
2013-03-27 15:33:00,55.9,30.0,29.07,NW,315,5.8,5.8,37,0.00,CLR,,0.00,WeatherDisplay:10.37,2013-03-27 19:33:00,
2013-03-27 15:38:00,56.1,29.5,29.07,NW,315,6.9,6.9,36,0.00,CLR,,0.00,WeatherDisplay:10.37,2013-03-27 19:38:00,
2013-03-27 15:43:00,56.1,30.8,29.07,NW,315,6.9,6.9,38,0.00,CLR,,0.00,WeatherDisplay:10.37,2013-03-27 19:43:00,
2013-03-27 15:48:00,55.6,29.0,29.06,NE,45,5.8,5.8,36,0.00,CLR,,0.00,WeatherDisplay:10.37,2013-03-27 19:48:00,
2013-03-27 15:53:00,55.6,29.0,29.06,NW,315,10.4,10.4,36,0.00,CLR,,0.00,WeatherDisplay:10.37,2013-03-27 19:53:00,
2013-03-27 15:58:00,54.5,29.4,29.06,NW,315,11.5,11.5,38,0.00,CLR,,0.00,WeatherDisplay:10.37,2013-03-27 19:58:00,
2013-03-27 16:03:00,55.0,29.2,29.06,West,270,4.6,4.6,37,0.00,CLR,,0.00,WeatherDisplay:10.37,2013-03-27 20:03:00,
2013-03-27 16:08:00,55.6,31.0,29.06,NW,315,5.8,5.8,39,0.00,CLR,,0.00,WeatherDisplay:10.37,2013-03-27 20:08:00,
2013-03-27 16:13:00,55.8,29.9,29.06,North,0,8.1,8.1,37,0.00,CLR,,0.00,WeatherDisplay:10.37,2013-03-27 20:13:00,
2013-03-27 16:18:00,55.4,29.5,29.06,WNW,292,4.6,4.6,37,0.00,CLR,,0.00,WeatherDisplay:10.37,2013-03-27 20:18:00,
2013-03-27 16:23:00,55.8,29.2,29.06,West,270,3.5,3.5,36,0.00,CLR,,0.00,WeatherDisplay:10.37,2013-03-27 20:23:00,
2013-03-27 16:28:00,54.9,29.1,29.05,NW,315,8.1,8.1,37,0.00,CLR,,0.00,WeatherDisplay:10.37,2013-03-27 20:28:00,
2013-03-27 16:33:00,55.4,30.2,29.06,NW,315,5.8,5.8,38,0.00,CLR,,0.00,WeatherDisplay:10.37,2013-03-27 20:33:00,
2013-03-27 16:38:00,54.9,29.7,29.06,NW,315,11.5,11.5,38,0.00,CLR,,0.00,WeatherDisplay:10.37,2013-03-27 20:38:00,
2013-03-27 16:43:00,54.5,28.7,29.05,SW,225,3.5,3.5,37,0.00,CLR,,0.00,WeatherDisplay:10.37,2013-03-27 20:43:00,
2013-03-27 16:48:00,54.5,30.6,29.05,NW,315,3.5,3.5,40,0.00,CLR,,0.00,WeatherDisplay:10.37,2013-03-27 20:48:00,
2013-03-27 16:53:00,54.7,28.9,29.05,NW,315,5.8,5.8,37,0.00,CLR,,0.00,WeatherDisplay:10.37,2013-03-27 20:53:00,
2013-03-27 16:58:00,54.3,29.9,29.05,NW,315,8.1,8.1,39,0.00,CLR,,0.00,WeatherDisplay:10.37,2013-03-27 20:58:00,
2013-03-27 17:03:00,54.9,29.1,29.05,North,0,4.6,4.6,37,0.00,CLR,,0.00,WeatherDisplay:10.37,2013-03-27 21:03:00,
2013-03-27 17:08:00,54.3,27.9,29.05,NW,315,5.8,5.8,36,0.00,CLR,,0.00,WeatherDisplay:10.37,2013-03-27 21:08:00,
2013-03-27 17:13:00,53.8,28.7,29.04,NW,315,6.9,6.9,38,0.00,CLR,,0.00,WeatherDisplay:10.37,2013-03-27 21:13:00,
2013-03-27 17:18:00,53.6,28.6,29.04,West,270,5.8,5.8,38,0.00,CLR,,0.00,WeatherDisplay:10.37,2013-03-27 21:18:00,
2013-03-27 17:23:00,53.6,29.2,29.04,North,0,5.8,5.8,39,0.00,CLR,,0.00,WeatherDisplay:10.37,2013-03-27 21:23:00,
2013-03-27 17:28:00,53.6,27.9,29.04,SW,225,2.3,2.3,37,0.00,CLR,,0.00,WeatherDisplay:10.37,2013-03-27 21:28:00,
2013-03-27 17:33:00,53.4,27.8,29.04,West,270,10.4,10.4,37,0.00,CLR,,0.00,WeatherDisplay:10.37,2013-03-27 21:33:00,
2013-03-27 17:38:00,52.5,28.2,29.05,North,0,5.8,5.8,39,0.00,CLR,,0.00,WeatherDisplay:10.37,2013-03-27 21:38:00,
2013-03-27 17:43:00,52.3,27.5,29.05,North,0,3.5,3.5,38,0.00,CLR,,0.00,WeatherDisplay:10.37,2013-03-27 21:43:00,
2013-03-27 17:48:00,52.5,28.2,29.05,West,270,3.5,3.5,39,0.00,CLR,,0.00,WeatherDisplay:10.37,2013-03-27 21:48:00,
2013-03-27 17:53:00,52.2,27.3,29.05,West,270,4.6,4.6,38,0.00,CLR,,0.00,WeatherDisplay:10.37,2013-03-27 21:53:00,
2013-03-27 17:58:00,51.6,27.4,29.04,West,270,10.4,10.4,39,0.00,CLR,,0.00,WeatherDisplay:10.37,2013-03-27 21:58:00,
2013-03-27 18:03:00,51.3,27.7,29.05,NW,315,6.9,6.9,40,0.00,CLR,,0.00,WeatherDisplay:10.37,2013-03-27 22:03:00,
2013-03-27 18:08:00,51.1,28.2,29.05,NE,45,5.8,5.8,41,0.00,CLR,,0.00,WeatherDisplay:10.37,2013-03-27 22:08:00,
2013-03-27 18:13:00,50.9,28.6,29.06,NE,45,5.8,5.8,42,0.00,CLR,,0.00,WeatherDisplay:10.37,2013-03-27 22:13:00,
2013-03-27 18:18:00,50.7,29.0,29.06,NE,45,5.8,5.8,43,0.00,CLR,,0.00,WeatherDisplay:10.37,2013-03-27 22:18:00,
2013-03-27 18:23:00,50.5,27.7,29.06,NW,315,5.8,5.8,41,0.00,CLR,,0.00,WeatherDisplay:10.37,2013-03-27 22:23:00,
2013-03-27 18:28:00,50.5,28.3,29.06,West,270,5.8,5.8,42,0.00,CLR,,0.00,WeatherDisplay:10.37,2013-03-27 22:28:00,
2013-03-27 18:33:00,50.5,27.7,29.06,NW,315,8.1,8.1,41,0.00,CLR,,0.00,WeatherDisplay:10.37,2013-03-27 22:33:00,
2013-03-27 18:38:00,50.2,27.9,29.06,SW,225,9.2,9.2,42,0.00,CLR,,0.00,WeatherDisplay:10.37,2013-03-27 22:38:00,
2013-03-27 18:43:00,50.0,28.4,29.06,SW,225,3.5,3.5,43,0.00,CLR,,0.00,WeatherDisplay:10.37,2013-03-27 22:43:00,
2013-03-27 18:48:00,49.8,28.2,29.06,North,0,5.8,5.8,43,0.00,CLR,,0.00,WeatherDisplay:10.37,2013-03-27 22:48:00,
2013-03-27 18:53:00,48.9,27.9,29.06,NW,315,3.5,3.5,44,0.00,CLR,,0.00,WeatherDisplay:10.37,2013-03-27 22:53:00,
2013-03-27 18:58:00,48.4,27.4,29.07,SW,225,4.6,4.6,44,0.00,CLR,,0.00,WeatherDisplay:10.37,2013-03-27 22:58:00,
2013-03-27 19:03:00,47.8,27.0,29.06,NNE,22,4.6,4.6,44,0.00,CLR,,0.00,WeatherDisplay:10.37,2013-03-27 23:03:00,
2013-03-27 19:08:00,47.3,27.0,29.06,North,0,4.6,4.6,45,0.00,CLR,,0.00,WeatherDisplay:10.37,2013-03-27 23:08:00,
2013-03-27 19:13:00,46.8,26.5,29.07,North,0,4.6,4.6,45,0.00,CLR,,0.00,WeatherDisplay:10.37,2013-03-27 23:13:00,
2013-03-27 19:18:00,46.4,26.7,29.07,NE,45,4.6,4.6,46,0.00,CLR,,0.00,WeatherDisplay:10.37,2013-03-27 23:18:00,
2013-03-27 19:23:00,46.0,26.4,29.08,NW,315,3.5,3.5,46,0.00,CLR,,0.00,WeatherDisplay:10.37,2013-03-27 23:23:00,
2013-03-27 19:28:00,45.7,26.6,29.08,NW,315,3.5,3.5,47,0.00,CLR,,0.00,WeatherDisplay:10.37,2013-03-27 23:28:00,
2013-03-27 19:33:00,45.5,26.4,29.08,NW,315,1.1,0.0,47,0.00,CLR,,0.00,WeatherDisplay:10.37,2013-03-27 23:33:00,
2013-03-27 19:38:00,44.8,26.3,29.08,North,0,3.5,0.0,48,0.00,CLR,,0.00,WeatherDisplay:10.37,2013-03-27 23:38:00,
2013-03-27 19:43:00,44.4,26.4,29.08,NW,315,5.8,5.8,49,0.00,CLR,,0.00,WeatherDisplay:10.37,2013-03-27 23:43:00,
2013-03-27 19:48:00,44.2,26.3,29.08,North,0,6.9,6.9,49,0.00,CLR,,0.00,WeatherDisplay:10.37,2013-03-27 23:48:00,
2013-03-27 19:53:00,43.9,26.4,29.08,NW,315,6.9,6.9,50,0.00,CLR,,0.00,WeatherDisplay:10.37,2013-03-27 23:53:00,
2013-03-27 19:58:00,43.5,25.6,29.09,NW,315,5.8,5.8,49,0.00,CLR,,0.00,WeatherDisplay:10.37,2013-03-27 23:58:00,
2013-03-27 20:03:00,43.5,25.6,29.09,NE,45,6.9,6.9,49,0.00,CLR,,0.00,WeatherDisplay:10.37,2013-03-28 00:03:00,
2013-03-27 20:08:00,43.2,26.2,29.09,North,0,4.6,0.0,51,0.00,CLR,,0.00,WeatherDisplay:10.37,2013-03-28 00:08:00,
2013-03-27 20:13:00,42.6,25.3,29.09,West,270,4.6,4.6,50,0.00,CLR,,0.00,WeatherDisplay:10.37,2013-03-28 00:13:00,
2013-03-27 20:18:00,42.6,25.3,29.09,NW,315,3.5,3.5,50,0.00,CLR,,0.00,WeatherDisplay:10.37,2013-03-28 00:18:00,
2013-03-27 20:23:00,42.4,25.6,29.09,NW,315,4.6,4.6,51,0.00,CLR,,0.00,WeatherDisplay:10.37,2013-03-28 00:23:00,
2013-03-27 20:28:00,42.3,25.4,29.10,NW,315,5.8,5.8,51,0.00,CLR,,0.00,WeatherDisplay:10.37,2013-03-28 00:28:00,
2013-03-27 20:33:00,42.1,25.2,29.09,NW,315,4.6,4.6,51,0.00,CLR,,0.00,WeatherDisplay:10.37,2013-03-28 00:33:00,
2013-03-27 20:38:00,41.9,25.5,29.09,East,90,4.6,4.6,52,0.00,CLR,,0.00,WeatherDisplay:10.37,2013-03-28 00:38:00,
2013-03-27 20:43:00,41.7,25.4,29.09,NW,315,6.9,6.9,52,0.00,CLR,,0.00,WeatherDisplay:10.37,2013-03-28 00:43:00,
2013-03-27 20:48:00,41.5,25.2,29.10,NW,315,5.8,5.8,52,0.00,CLR,,0.00,WeatherDisplay:10.37,2013-03-28 00:48:00,
2013-03-27 20:53:00,41.2,25.3,29.10,NW,315,3.5,3.5,53,0.00,CLR,,0.00,WeatherDisplay:10.37,2013-03-28 00:53:00,
2013-03-27 20:58:00,40.8,25.0,29.10,NW,315,1.1,1.1,53,0.00,CLR,,0.00,WeatherDisplay:10.37,2013-03-28 00:58:00,
2013-03-27 21:03:00,40.5,25.5,29.10,NW,315,3.5,3.5,55,0.00,CLR,,0.00,WeatherDisplay:10.37,2013-03-28 01:03:00,
2013-03-27 21:08:00,39.9,25.0,29.10,NW,315,2.3,2.3,55,0.00,CLR,,0.00,WeatherDisplay:10.37,2013-03-28 01:08:00,
2013-03-27 21:13:00,39.7,24.9,29.10,NW,315,1.1,0.0,55,0.00,CLR,,0.00,WeatherDisplay:10.37,2013-03-28 01:13:00,
2013-03-27 21:18:00,39.4,25.0,29.10,NW,315,1.1,0.0,56,0.00,CLR,,0.00,WeatherDisplay:10.37,2013-03-28 01:18:00,
2013-03-27 21:23:00,38.8,25.3,29.10,North,0,1.1,1.1,58,0.00,CLR,,0.00,WeatherDisplay:10.37,2013-03-28 01:23:00,
2013-03-27 21:28:00,38.3,25.2,29.10,NW,315,2.3,2.3,59,0.00,CLR,,0.00,WeatherDisplay:10.37,2013-03-28 01:28:00,
2013-03-27 21:33:00,38.1,25.0,29.10,NE,45,2.3,0.0,59,0.00,CLR,,0.00,WeatherDisplay:10.37,2013-03-28 01:33:00,
2013-03-27 21:38:00,37.8,25.1,29.11,North,0,1.6,0.0,60,0.00,CLR,,0.00,WeatherDisplay:10.37,2013-03-28 01:38:00,
2013-03-27 21:43:00,37.4,24.8,29.11,North,0,3.5,0.0,60,0.00,CLR,,0.00,WeatherDisplay:10.37,2013-03-28 01:43:00,
2013-03-27 21:48:00,37.2,24.6,29.11,NW,315,1.1,0.0,60,0.00,CLR,,0.00,WeatherDisplay:10.37,2013-03-28 01:48:00,
2013-03-27 21:53:00,37.0,24.8,29.12,NW,315,1.1,0.0,61,0.00,CLR,,0.00,WeatherDisplay:10.37,2013-03-28 01:53:00,
2013-03-27 21:58:00,36.5,24.7,29.12,NW,315,2.3,2.3,62,0.00,CLR,,0.00,WeatherDisplay:10.37,2013-03-28 01:58:00,
2013-03-27 22:03:00,36.1,24.4,29.11,NW,315,0.0,0.0,62,0.00,CLR,,0.00,WeatherDisplay:10.37,2013-03-28 02:03:00,
2013-03-27 22:08:00,36.1,24.4,29.11,NW,315,0.0,0.0,62,0.00,CLR,,0.00,WeatherDisplay:10.37,2013-03-28 02:08:00,
2013-03-27 22:13:00,34.9,23.9,29.11,NW,315,0.0,0.0,64,0.00,CLR,,0.00,WeatherDisplay:10.37,2013-03-28 02:13:00,
2013-03-27 22:18:00,34.2,24.3,29.11,NW,315,1.1,0.0,67,0.00,CLR,,0.00,WeatherDisplay:10.37,2013-03-28 02:18:00,
2013-03-27 22:23:00,34.2,24.7,29.11,North,0,3.5,0.0,68,0.00,CLR,,0.00,WeatherDisplay:10.37,2013-03-28 02:23:00,
2013-03-27 22:28:00,34.5,25.0,29.11,North,0,1.1,1.1,68,0.00,CLR,,0.00,WeatherDisplay:10.37,2013-03-28 02:28:00,
2013-03-27 22:33:00,34.7,24.5,29.12,NW,315,1.1,0.0,66,0.00,CLR,,0.00,WeatherDisplay:10.37,2013-03-28 02:33:00,
2013-03-27 22:38:00,34.5,24.7,29.11,North,0,0.0,0.0,67,0.00,CLR,,0.00,WeatherDisplay:10.37,2013-03-28 02:38:00,
2013-03-27 22:43:00,34.0,24.2,29.12,NW,315,0.0,0.0,67,0.00,CLR,,0.00,WeatherDisplay:10.37,2013-03-28 02:43:00,
2013-03-27 22:48:00,33.1,23.7,29.12,NW,315,0.0,0.0,68,0.00,CLR,,0.00,WeatherDisplay:10.37,2013-03-28 02:48:00,
2013-03-27 22:53:00,32.5,23.8,29.12,NW,315,0.0,0.0,70,0.00,CLR,,0.00,WeatherDisplay:10.37,2013-03-28 02:53:00,
2013-03-27 22:58:00,31.8,23.5,29.12,NW,315,0.0,0.0,71,0.00,CLR,,0.00,WeatherDisplay:10.37,2013-03-28 02:58:00,
2013-03-27 23:03:00,31.3,23.3,29.12,NW,315,0.0,0.0,72,0.00,CLR,,0.00,WeatherDisplay:10.37,2013-03-28 03:03:00,
2013-03-27 23:08:00,30.9,23.3,29.12,NW,315,0.0,0.0,73,0.00,CLR,,0.00,WeatherDisplay:10.37,2013-03-28 03:08:00,
2013-03-27 23:13:00,30.4,23.1,29.12,NW,315,0.0,0.0,74,0.00,CLR,,0.00,WeatherDisplay:10.37,2013-03-28 03:13:00,
2013-03-27 23:18:00,30.0,23.1,29.12,NW,315,0.0,0.0,75,0.00,CLR,,0.00,WeatherDisplay:10.37,2013-03-28 03:18:00,
2013-03-27 23:23:00,29.7,22.7,29.12,NW,315,0.0,0.0,75,0.00,CLR,,0.00,WeatherDisplay:10.37,2013-03-28 03:23:00,
2013-03-27 23:28:00,29.3,22.7,29.12,NW,315,0.0,0.0,76,0.00,CLR,,0.00,WeatherDisplay:10.37,2013-03-28 03:28:00,
2013-03-27 23:33:00,28.9,22.6,29.11,NW,315,0.0,0.0,77,0.00,CLR,,0.00,WeatherDisplay:10.37,2013-03-28 03:33:00,
2013-03-27 23:38:00,28.9,23.5,29.12,NW,315,0.0,0.0,80,0.00,CLR,,0.00,WeatherDisplay:10.37,2013-03-28 03:38:00,
2013-03-27 23:43:00,29.3,24.5,29.12,NW,315,0.0,0.0,82,0.00,CLR,,0.00,WeatherDisplay:10.37,2013-03-28 03:43:00,
2013-03-27 23:48:00,29.5,24.1,29.12,NW,315,0.0,0.0,80,0.00,CLR,,0.00,WeatherDisplay:10.37,2013-03-28 03:48:00,
2013-03-27 23:53:00,29.5,24.1,29.12,NW,315,0.0,0.0,80,0.00,CLR,,0.00,WeatherDisplay:10.37,2013-03-28 03:53:00,
2013-03-27 23:58:00,28.9,23.8,29.12,NW,315,0.0,0.0,81,0.00,CLR,,0.00,WeatherDisplay:10.37,2013-03-28 03:58:00,